Tristen — WDB6155 — position and weather

sailwx.info

Track history (hours):
 
Tides and Currents Weather Stations Pressure Air Temp Water Temp Dewpoint Dewpoint Depression Visibility Wind Speed Wind Dir Waves Ship Positions

Tristen

Owner: LA CARRIERS, INC., CUT OFF, LA. More information available from US FCC via Universal Licensing System and Coast Guard Vessel Documentation Center.

Last reported at 2017-Aug-27 13:27 UTC. Time now 2017-Sep-24 03:23 UTC.
Position N 29°34' W 090°31'.
Warning: this ship's position is 27 days out of date.

MMSI: 366919050.

Date/timePositionNaut miles runAvg speedWind from/ knotsBaromVisibWave heightAir tempDewpointWater temp
2017-Aug-27 13:27N 29°34' W 090°31'4 7.3
2017-Aug-27 12:58N 29°35' W 090°35'3 6.6
2017-Aug-27 12:30N 29°35' W 090°39'3 6.9
2017-Aug-27 12:00N 29°37' W 090°42'2 3.1
2017-Aug-27 11:30N 29°35' W 090°43'0 0.0
2017-Aug-27 11:00N 29°35' W 090°43'0 0.0
2017-Aug-27 10:30N 29°35' W 090°43'0 0.0
2017-Aug-27 10:00N 29°35' W 090°43'0 0.0
2017-Aug-27 09:30N 29°35' W 090°43'0 0.0
2017-Aug-27 09:00N 29°35' W 090°43'0 0.0
2017-Aug-27 08:30N 29°35' W 090°43'0 0.0
2017-Aug-27 08:00N 29°35' W 090°43'0 0.0
2017-Aug-27 07:30N 29°35' W 090°43'0 0.0
2017-Aug-27 07:00N 29°35' W 090°43'0 0.0
2017-Aug-27 06:30N 29°35' W 090°43'0 0.0
2017-Aug-27 06:00N 29°35' W 090°43'0 0.0
2017-Aug-27 05:30N 29°35' W 090°43'0 0.0
2017-Aug-27 05:00N 29°35' W 090°43'0 0.0
2017-Aug-27 04:30N 29°35' W 090°43'2 3.4
2017-Aug-27 04:00N 29°34' W 090°44'4 7.4
2017-Aug-27 03:30N 29°32' W 090°48'2 0.2
2017-Aug-26 20:24N 29°32' W 090°50'3 6.4
2017-Aug-26 19:59N 29°32' W 090°47'3 5.5
2017-Aug-26 19:30N 29°34' W 090°44'2 4.8
2017-Aug-26 19:00N 29°36' W 090°43'1 2.9
2017-Aug-26 18:30N 29°37' W 090°41'3 5.8
2017-Aug-26 18:00N 29°35' W 090°38'3 5.7
2017-Aug-26 17:30N 29°35' W 090°35'3 6.2
2017-Aug-26 17:00N 29°34' W 090°32'  
2017-Aug-20 10:19N 29°35' W 090°23'0 0.0
2017-Aug-20 09:49N 29°35' W 090°23'0 0.0
2017-Aug-20 09:22N 29°35' W 090°23'0 0.0
2017-Aug-20 09:00N 29°35' W 090°23'0 0.0
2017-Aug-20 08:26N 29°35' W 090°23'  
Track history (hours):
 
Tides and Currents Weather Stations Pressure Air Temp Water Temp Dewpoint Dewpoint Depression Visibility Wind Speed Wind Dir Waves Ship Positions

Tristen

Owner: LA CARRIERS, INC., CUT OFF, LA. More information available from US FCC via Universal Licensing System and Coast Guard Vessel Documentation Center.

Last reported at 2017-Aug-27 13:27 UTC. Time now 2017-Sep-24 03:23 UTC.
Position N 29°34' W 090°31'.
Warning: this ship's position is 27 days out of date.

MMSI: 366919050.

Date/timePositionNaut miles runAvg speedWind from/ knotsBaromVisibWave heightAir tempDewpointWater temp
2017-Aug-27 13:27N 29°34' W 090°31'4 7.3
2017-Aug-27 12:58N 29°35' W 090°35'3 6.6
2017-Aug-27 12:30N 29°35' W 090°39'3 6.9
2017-Aug-27 12:00N 29°37' W 090°42'2 3.1
2017-Aug-27 11:30N 29°35' W 090°43'0 0.0
2017-Aug-27 11:00N 29°35' W 090°43'0 0.0
2017-Aug-27 10:30N 29°35' W 090°43'0 0.0
2017-Aug-27 10:00N 29°35' W 090°43'0 0.0
2017-Aug-27 09:30N 29°35' W 090°43'0 0.0
2017-Aug-27 09:00N 29°35' W 090°43'0 0.0
2017-Aug-27 08:30N 29°35' W 090°43'0 0.0
2017-Aug-27 08:00N 29°35' W 090°43'0 0.0
2017-Aug-27 07:30N 29°35' W 090°43'0 0.0
2017-Aug-27 07:00N 29°35' W 090°43'0 0.0
2017-Aug-27 06:30N 29°35' W 090°43'0 0.0
2017-Aug-27 06:00N 29°35' W 090°43'0 0.0
2017-Aug-27 05:30N 29°35' W 090°43'0 0.0
2017-Aug-27 05:00N 29°35' W 090°43'0 0.0
2017-Aug-27 04:30N 29°35' W 090°43'2 3.4
2017-Aug-27 04:00N 29°34' W 090°44'4 7.4
2017-Aug-27 03:30N 29°32' W 090°48'2 0.2
2017-Aug-26 20:24N 29°32' W 090°50'3 6.4
2017-Aug-26 19:59N 29°32' W 090°47'3 5.5
2017-Aug-26 19:30N 29°34' W 090°44'2 4.8
2017-Aug-26 19:00N 29°36' W 090°43'1 2.9
2017-Aug-26 18:30N 29°37' W 090°41'3 5.8
2017-Aug-26 18:00N 29°35' W 090°38'3 5.7
2017-Aug-26 17:30N 29°35' W 090°35'3 6.2
2017-Aug-26 17:00N 29°34' W 090°32'  
2017-Aug-20 10:19N 29°35' W 090°23'0 0.0
2017-Aug-20 09:49N 29°35' W 090°23'0 0.0
2017-Aug-20 09:22N 29°35' W 090°23'0 0.0
2017-Aug-20 09:00N 29°35' W 090°23'0 0.0
2017-Aug-20 08:26N 29°35' W 090°23'  

Dump ship's entire track history